createdAt,value
2023-05-24T00:02:08.169Z,12.90
2023-05-24T00:04:35.020Z,12.89
2023-05-24T00:07:04.803Z,12.88
2023-05-24T00:09:31.318Z,12.86
2023-05-24T00:11:58.181Z,12.90
2023-05-24T00:14:25.320Z,12.94
2023-05-24T00:16:51.929Z,12.99
2023-05-24T00:19:18.814Z,13.04
2023-05-24T00:21:46.786Z,13.10
2023-05-24T00:24:14.125Z,13.14
2023-05-24T00:26:41.221Z,13.18
2023-05-24T00:29:07.805Z,13.21
2023-05-24T00:31:34.606Z,13.20
2023-05-24T00:34:01.364Z,13.22
2023-05-24T00:36:27.998Z,13.22
2023-05-24T00:38:54.521Z,13.25
2023-05-24T00:41:32.155Z,13.27
2023-05-24T00:44:04.386Z,13.28
2023-05-24T00:46:33.480Z,13.31
2023-05-24T00:49:04.157Z,13.34
2023-05-24T00:51:32.178Z,13.33
2023-05-24T00:53:58.998Z,13.33
2023-05-24T00:56:26.797Z,13.27
2023-05-24T00:59:04.484Z,13.22
2023-05-24T01:01:31.455Z,13.17
2023-05-24T01:03:59.561Z,13.11
2023-05-24T01:06:28.124Z,13.03
2023-05-24T01:09:09.455Z,13.02
2023-05-24T01:11:48.553Z,13.01
2023-05-24T01:14:35.775Z,12.98
2023-05-24T01:17:21.676Z,12.99
2023-05-24T01:19:52.986Z,13.03
2023-05-24T01:22:32.515Z,13.04
2023-05-24T01:25:04.421Z,13.04
2023-05-24T01:27:36.232Z,13.04
2023-05-24T01:30:04.649Z,13.03
2023-05-24T01:32:31.923Z,13.02
2023-05-24T01:34:58.557Z,12.96
2023-05-24T01:37:25.146Z,12.96
2023-05-24T01:39:52.685Z,12.95
2023-05-24T01:42:34.563Z,13.02
2023-05-24T01:45:18.999Z,13.07
2023-05-24T01:48:04.599Z,13.08
2023-05-24T01:50:46.490Z,13.08
2023-05-24T01:53:17.218Z,13.08
2023-05-24T01:55:46.623Z,13.11
2023-05-24T01:58:14.134Z,13.10
2023-05-24T02:00:41.919Z,13.15
2023-05-24T02:03:09.375Z,13.17
2023-05-24T02:05:36.107Z,13.18
2023-05-24T02:08:02.678Z,13.19
2023-05-24T02:10:29.315Z,13.18
2023-05-24T02:12:55.940Z,13.22
2023-05-24T02:15:22.589Z,13.23
2023-05-24T02:17:49.150Z,13.22
2023-05-24T02:20:17.401Z,13.21
2023-05-24T02:22:44.041Z,13.22
2023-05-24T02:25:10.623Z,13.20
2023-05-24T02:27:37.120Z,13.20
2023-05-24T02:30:04.269Z,13.20
2023-05-24T02:32:31.389Z,13.19
2023-05-24T02:34:59.209Z,13.17
2023-05-24T02:37:25.755Z,13.17
2023-05-24T02:39:52.310Z,13.18
2023-05-24T02:42:19.005Z,13.19
2023-05-24T02:44:49.550Z,13.18
2023-05-24T02:47:16.119Z,13.22
2023-05-24T02:49:42.697Z,13.15
2023-05-24T02:52:09.399Z,13.12
2023-05-24T02:54:36.967Z,13.15
2023-05-24T02:57:04.016Z,13.17
2023-05-24T02:59:31.189Z,13.17
2023-05-24T03:01:57.834Z,13.19
2023-05-24T03:04:24.577Z,13.20
2023-05-24T03:06:51.213Z,13.20
2023-05-24T03:09:19.002Z,13.23
2023-05-24T03:11:45.670Z,13.25
2023-05-24T03:14:12.222Z,13.25
2023-05-24T03:16:38.879Z,13.29
2023-05-24T03:19:08.422Z,13.35
2023-05-24T03:21:36.609Z,13.36
2023-05-24T03:24:03.258Z,13.35
2023-05-24T03:26:29.908Z,13.34
2023-05-24T03:28:56.651Z,13.35
2023-05-24T03:31:24.286Z,13.35
2023-05-24T03:33:51.499Z,13.36
2023-05-24T03:36:18.424Z,13.39
2023-05-24T03:38:45.058Z,13.38
2023-05-24T03:41:11.558Z,13.40
2023-05-24T03:43:38.369Z,13.41
2023-05-24T03:46:05.018Z,13.42
2023-05-24T03:48:31.717Z,13.44
2023-05-24T03:50:58.413Z,13.40
2023-05-24T03:53:25.451Z,13.41
2023-05-24T03:55:52.119Z,13.38
2023-05-24T03:58:18.793Z,13.30
2023-05-24T04:00:45.509Z,13.29
2023-05-24T04:03:12.288Z,13.32
2023-05-24T04:05:39.060Z,13.35
2023-05-24T04:08:05.596Z,13.36
2023-05-24T04:10:32.167Z,13.38
2023-05-24T04:12:58.907Z,13.40
2023-05-24T04:15:25.522Z,13.44
2023-05-24T04:17:55.384Z,13.46
2023-05-24T04:20:25.473Z,13.48
2023-05-24T04:22:52.414Z,13.50
2023-05-24T04:25:19.081Z,13.50
2023-05-24T04:27:48.790Z,13.56
2023-05-24T04:30:16.669Z,13.60
2023-05-24T04:32:46.664Z,13.65
2023-05-24T04:35:14.228Z,13.69
2023-05-24T04:37:40.976Z,13.73
2023-05-24T04:40:08.656Z,13.74
2023-05-24T04:42:35.675Z,13.80
2023-05-24T04:45:02.944Z,13.85
2023-05-24T04:47:29.937Z,13.89
2023-05-24T04:49:56.575Z,13.93
2023-05-24T04:52:23.148Z,13.97
2023-05-24T04:54:50.025Z,14.03
2023-05-24T04:57:17.278Z,14.09
2023-05-24T04:59:44.447Z,14.12
2023-05-24T05:02:11.191Z,14.12
2023-05-24T05:04:37.881Z,14.19
2023-05-24T05:07:04.889Z,14.19
2023-05-24T05:09:31.511Z,14.29
2023-05-24T05:11:58.519Z,14.41
2023-05-24T05:14:25.179Z,14.53
2023-05-24T05:16:51.758Z,14.61
2023-05-24T05:19:18.377Z,14.75
2023-05-24T05:21:44.867Z,14.84
2023-05-24T05:24:17.925Z,14.93
2023-05-24T05:26:47.512Z,15.05
2023-05-24T05:29:27.168Z,15.21
2023-05-24T05:32:14.936Z,15.40
2023-05-24T05:34:41.601Z,15.61
2023-05-24T05:37:08.172Z,15.66
2023-05-24T05:39:36.084Z,15.86
2023-05-24T05:42:02.802Z,15.99
2023-05-24T05:45:29.440Z,15.87
2023-05-24T06:11:07.681Z,17.55
2023-05-24T06:13:34.299Z,17.72
2023-05-24T06:23:00.216Z,18.48
2023-05-24T06:26:39.352Z,18.60
2023-05-24T06:32:40.357Z,18.81
2023-05-24T06:35:07.993Z,18.93
2023-05-24T06:37:38.676Z,19.09
2023-05-24T06:40:20.035Z,19.22
2023-05-24T06:47:02.646Z,19.53
2023-05-24T06:49:33.394Z,19.69
2023-05-24T07:00:58.637Z,20.00
2023-05-24T07:03:25.337Z,20.34
2023-05-24T07:05:52.003Z,20.81
2023-05-24T07:08:24.773Z,20.91
2023-05-24T07:10:52.015Z,20.99
2023-05-24T07:13:26.083Z,20.88
2023-05-24T07:23:32.140Z,21.53
2023-05-24T07:26:46.495Z,22.70
2023-05-24T07:29:35.685Z,23.18
2023-05-24T07:36:01.564Z,22.77
2023-05-24T07:38:29.296Z,22.13
2023-05-24T07:40:56.066Z,22.09
2023-05-24T07:43:22.635Z,22.02
2023-05-24T07:45:49.176Z,22.24
2023-05-24T07:50:59.785Z,20.75
2023-05-24T07:53:26.356Z,21.27
2023-05-24T07:55:52.923Z,21.81
2023-05-24T07:58:19.560Z,22.03
2023-05-24T08:00:46.793Z,22.41
2023-05-24T08:03:14.754Z,22.28
2023-05-24T08:05:41.761Z,23.16
2023-05-24T08:08:08.620Z,24.09
2023-05-24T08:10:38.466Z,25.32
2023-05-24T08:13:05.735Z,25.12
2023-05-24T08:15:32.304Z,26.18
2023-05-24T08:17:59.322Z,26.06
2023-05-24T08:20:25.913Z,25.28
2023-05-24T08:22:52.753Z,24.03
2023-05-24T08:25:20.057Z,23.46
2023-05-24T08:27:46.790Z,22.98
2023-05-24T08:30:14.264Z,22.50
2023-05-24T08:32:40.976Z,22.57
2023-05-24T08:35:21.640Z,23.11
2023-05-24T08:37:49.241Z,22.92
2023-05-24T08:40:16.745Z,23.95
2023-05-24T08:42:45.228Z,23.62
2023-05-24T08:45:13.137Z,23.31
2023-05-24T08:47:40.678Z,23.01
2023-05-24T08:50:24.950Z,22.84
2023-05-24T08:52:53.199Z,22.76
2023-05-24T08:55:22.886Z,22.81
2023-05-24T08:57:54.556Z,22.73
2023-05-24T09:00:22.003Z,22.56
2023-05-24T09:02:49.583Z,22.16
2023-05-24T09:05:21.829Z,21.79
2023-05-24T09:07:49.750Z,21.86
2023-05-24T09:10:19.475Z,22.11
2023-05-24T09:12:48.756Z,22.50
2023-05-24T09:15:15.463Z,22.71
2023-05-24T09:17:42.268Z,22.81
2023-05-24T09:20:11.208Z,22.63
2023-05-24T09:22:40.688Z,22.50
2023-05-24T09:25:09.831Z,22.32
2023-05-24T09:27:37.531Z,22.46
2023-05-24T09:30:08.601Z,22.65
2023-05-24T09:32:35.182Z,22.50
2023-05-24T09:35:02.226Z,22.33
2023-05-24T09:37:32.765Z,22.10
2023-05-24T09:39:59.764Z,22.21
2023-05-24T09:42:28.638Z,22.44
2023-05-24T09:45:09.206Z,22.91
2023-05-24T09:47:37.708Z,23.65
2023-05-24T09:50:07.307Z,24.06
2023-05-24T09:52:37.261Z,23.85
2023-05-24T09:55:15.245Z,23.43
2023-05-24T09:57:44.357Z,23.03
2023-05-24T10:00:16.556Z,23.39
2023-05-24T10:02:53.350Z,24.34
2023-05-24T10:05:21.264Z,24.65
2023-05-24T10:07:48.207Z,25.14
2023-05-24T10:10:14.985Z,24.38
2023-05-24T10:12:44.257Z,23.80
2023-05-24T10:15:11.236Z,23.13
2023-05-24T10:17:37.986Z,22.83
2023-05-24T10:20:06.876Z,22.47
2023-05-24T10:22:40.497Z,22.15
2023-05-24T10:25:10.805Z,22.04
2023-05-24T10:27:38.582Z,22.24
2023-05-24T10:30:43.213Z,23.09
2023-05-24T10:33:13.433Z,24.63
2023-05-24T10:35:41.340Z,25.20
2023-05-24T10:38:08.658Z,25.23
2023-05-24T10:40:41.891Z,25.53
2023-05-24T10:43:09.647Z,25.19
2023-05-24T10:45:41.082Z,24.43
2023-05-24T10:48:13.725Z,24.31
2023-05-24T10:50:41.941Z,24.21
2023-05-24T10:53:16.771Z,24.43
2023-05-24T10:56:01.143Z,24.59
2023-05-24T10:58:35.418Z,24.79
2023-05-24T11:01:01.982Z,25.10
2023-05-24T11:03:34.904Z,25.63
2023-05-24T11:06:01.655Z,26.00
2023-05-24T11:08:36.094Z,25.94
2023-05-24T11:13:46.353Z,25.85
2023-05-24T11:16:44.957Z,25.36
2023-05-24T11:19:25.144Z,25.15
2023-05-24T11:21:58.704Z,24.78
2023-05-24T11:24:26.938Z,24.39
2023-05-24T11:26:54.032Z,24.20
2023-05-24T11:29:22.353Z,23.82
2023-05-24T11:31:49.744Z,23.72
2023-05-24T11:34:17.374Z,23.62
2023-05-24T11:36:47.186Z,23.25
2023-05-24T11:39:14.859Z,22.96
2023-05-24T11:41:41.882Z,22.63
2023-05-24T11:44:10.559Z,22.57
2023-05-24T11:46:39.487Z,22.50
2023-05-24T11:49:06.988Z,22.41
2023-05-24T11:51:34.812Z,22.21
2023-05-24T11:54:01.764Z,22.17
2023-05-24T11:56:33.872Z,22.09
2023-05-24T11:59:15.603Z,21.91
2023-05-24T12:01:43.043Z,21.69
2023-05-24T12:04:10.460Z,21.71
2023-05-24T12:06:42.210Z,21.70
2023-05-24T12:09:13.804Z,21.42
2023-05-24T12:11:42.170Z,21.35
2023-05-24T12:14:16.576Z,21.42
2023-05-24T12:16:44.827Z,21.34
2023-05-24T12:19:31.630Z,21.47
2023-05-24T12:22:00.584Z,21.52
2023-05-24T12:24:28.086Z,21.43
2023-05-24T12:27:01.715Z,21.39
2023-05-24T12:29:33.029Z,21.22
2023-05-24T12:32:00.036Z,21.00
2023-05-24T12:34:26.623Z,20.88
2023-05-24T12:36:55.521Z,20.43
2023-05-24T12:39:24.267Z,20.08
2023-05-24T12:41:55.620Z,19.79
2023-05-24T12:44:27.513Z,19.65
2023-05-24T12:46:55.950Z,19.53
2023-05-24T12:49:23.559Z,19.38
2023-05-24T12:51:50.927Z,19.31
2023-05-24T12:54:23.677Z,19.21
2023-05-24T12:56:53.430Z,19.15
2023-05-24T12:59:22.193Z,19.05
2023-05-24T13:01:52.513Z,18.90
2023-05-24T13:04:21.368Z,18.76
2023-05-24T13:06:48.323Z,18.79
2023-05-24T13:09:17.988Z,18.78
2023-05-24T13:11:45.429Z,18.70
2023-05-24T13:14:12.599Z,18.63
2023-05-24T13:16:39.283Z,18.68
2023-05-24T13:19:05.864Z,18.58
2023-05-24T13:21:32.483Z,18.61
2023-05-24T13:23:59.335Z,18.54
2023-05-24T13:26:26.132Z,18.51
2023-05-24T13:31:22.219Z,18.42
2023-05-24T13:33:49.190Z,18.33
2023-05-24T13:36:17.112Z,18.33
2023-05-24T13:38:43.665Z,18.26
2023-05-24T13:41:10.198Z,18.12
2023-05-24T13:43:36.743Z,18.07
2023-05-24T13:46:03.488Z,17.98
2023-05-24T13:48:30.302Z,17.90
2023-05-24T13:50:56.991Z,17.85
2023-05-24T13:53:23.725Z,17.76
2023-05-24T13:55:50.480Z,17.68
2023-05-24T13:58:17.009Z,17.60
2023-05-24T14:00:44.089Z,17.58
2023-05-24T14:03:13.062Z,17.53
2023-05-24T14:05:40.949Z,17.47
2023-05-24T14:08:07.748Z,17.45
2023-05-24T14:10:37.051Z,17.42
2023-05-24T14:15:37.962Z,17.37
2023-05-24T14:18:08.209Z,17.36
2023-05-24T14:20:40.144Z,17.35
2023-05-24T14:23:07.780Z,17.29
2023-05-24T14:25:34.643Z,17.24
2023-05-24T14:28:01.524Z,17.25
2023-05-24T14:30:28.116Z,17.23
2023-05-24T14:32:54.750Z,17.23
2023-05-24T14:35:21.327Z,17.20
2023-05-24T14:37:47.927Z,17.08
2023-05-24T14:40:16.459Z,17.02
2023-05-24T14:42:44.284Z,16.93
2023-05-24T14:45:11.555Z,16.85
2023-05-24T14:47:38.138Z,16.80
2023-05-24T14:50:05.222Z,16.73
2023-05-24T14:52:32.757Z,16.73
2023-05-24T14:54:59.330Z,16.71
2023-05-24T14:57:26.016Z,16.65
2023-05-24T14:59:52.549Z,16.60
2023-05-24T15:02:19.267Z,16.58
2023-05-24T15:04:46.061Z,16.53
2023-05-24T15:07:12.819Z,16.52
2023-05-24T15:09:39.374Z,16.49
2023-05-24T15:12:07.647Z,16.46
2023-05-24T15:14:34.298Z,16.38
2023-05-24T15:17:00.892Z,16.33
2023-05-24T15:19:27.951Z,16.30
2023-05-24T15:21:54.541Z,16.30
2023-05-24T15:24:21.093Z,16.25
2023-05-24T15:26:47.641Z,16.20
2023-05-24T15:29:14.349Z,16.12
2023-05-24T15:31:41.155Z,16.11
2023-05-24T15:34:07.768Z,16.02
2023-05-24T15:36:34.312Z,16.06
2023-05-24T15:39:00.892Z,16.06
2023-05-24T15:41:28.283Z,16.05
2023-05-24T15:43:54.830Z,16.05
2023-05-24T15:46:22.007Z,16.07
2023-05-24T15:48:48.843Z,16.13
2023-05-24T15:53:44.885Z,16.04
2023-05-24T15:56:11.873Z,16.01
2023-05-24T15:58:38.421Z,15.87
2023-05-24T16:01:05.017Z,15.83
2023-05-24T16:03:31.715Z,15.54
2023-05-24T16:05:58.369Z,15.36
2023-05-24T16:08:27.902Z,15.35
2023-05-24T16:10:55.262Z,15.34
2023-05-24T16:13:21.837Z,15.30
2023-05-24T16:15:51.669Z,15.14
2023-05-24T16:18:22.464Z,15.02
2023-05-24T16:20:50.998Z,14.97
2023-05-24T16:23:23.178Z,14.89
2023-05-24T16:25:49.886Z,14.63
2023-05-24T16:28:16.488Z,14.62
2023-05-24T16:30:43.660Z,14.55
2023-05-24T16:33:10.635Z,14.53
2023-05-24T16:35:37.235Z,14.62
2023-05-24T16:38:03.766Z,14.63
2023-05-24T16:40:30.631Z,14.46
2023-05-24T16:42:57.288Z,14.43
2023-05-24T16:45:23.896Z,14.36
2023-05-24T16:47:51.050Z,14.40
2023-05-24T16:50:17.632Z,14.34
2023-05-24T16:52:45.007Z,14.28
2023-05-24T16:55:12.525Z,14.28
2023-05-24T16:57:39.285Z,14.31
2023-05-24T17:00:06.748Z,14.26
2023-05-24T17:02:34.039Z,14.22
2023-05-24T17:05:00.997Z,14.10
2023-05-24T17:07:27.932Z,14.04
2023-05-24T17:09:54.511Z,14.02
2023-05-24T17:12:21.806Z,14.01
2023-05-24T17:14:48.425Z,14.05
2023-05-24T17:17:14.983Z,14.07
2023-05-24T17:19:41.583Z,14.05
2023-05-24T17:22:08.850Z,14.10
2023-05-24T17:24:35.415Z,14.21
2023-05-24T17:27:02.739Z,14.19
2023-05-24T17:29:30.088Z,14.23
2023-05-24T17:31:56.726Z,14.25
2023-05-24T17:34:23.310Z,14.24
2023-05-24T17:36:49.879Z,14.23
2023-05-24T17:39:17.477Z,14.26
2023-05-24T17:41:44.612Z,14.19
2023-05-24T17:44:11.437Z,14.17
2023-05-24T17:46:41.298Z,14.10
2023-05-24T17:49:08.387Z,13.96
2023-05-24T17:51:35.101Z,13.83
2023-05-24T17:54:01.639Z,13.85
2023-05-24T17:56:29.066Z,13.73
2023-05-24T17:58:55.736Z,13.47
2023-05-24T18:01:22.898Z,13.43
2023-05-24T18:03:49.498Z,13.49
2023-05-24T18:06:16.046Z,13.40
2023-05-24T18:08:43.181Z,13.39
2023-05-24T18:11:11.411Z,13.38
2023-05-24T18:13:39.179Z,13.37
2023-05-24T18:16:06.986Z,13.32
2023-05-24T18:18:34.241Z,13.30
2023-05-24T18:21:01.038Z,13.34
2023-05-24T18:23:27.683Z,13.38
2023-05-24T18:26:00.753Z,13.39
2023-05-24T18:28:28.796Z,13.37
2023-05-24T18:30:55.401Z,13.29
2023-05-24T18:33:22.139Z,13.22
2023-05-24T18:35:48.928Z,13.16
2023-05-24T18:38:15.484Z,13.17
2023-05-24T18:40:41.994Z,13.17
2023-05-24T18:43:08.520Z,13.21
2023-05-24T18:45:35.114Z,13.19
2023-05-24T18:48:01.784Z,13.11
2023-05-24T18:50:28.314Z,13.03
2023-05-24T18:52:54.889Z,12.99
2023-05-24T18:55:21.514Z,12.98
2023-05-24T18:57:49.132Z,12.95
2023-05-24T19:00:19.293Z,12.96
2023-05-24T19:02:46.079Z,12.93
2023-05-24T19:05:12.864Z,12.88
2023-05-24T19:07:39.437Z,12.90
2023-05-24T19:10:07.037Z,12.92
2023-05-24T19:12:33.838Z,12.91
2023-05-24T19:15:02.698Z,12.92
2023-05-24T19:17:29.260Z,12.85
2023-05-24T19:19:55.827Z,12.81
2023-05-24T19:22:22.385Z,12.72
2023-05-24T19:24:49.111Z,12.67
2023-05-24T19:27:15.693Z,12.62
2023-05-24T19:29:42.311Z,12.64
2023-05-24T19:32:09.022Z,12.63
2023-05-24T19:34:37.210Z,12.65
2023-05-24T19:37:04.213Z,12.68
2023-05-24T19:39:30.850Z,12.71
2023-05-24T19:41:57.404Z,12.73
2023-05-24T19:44:23.948Z,12.72
2023-05-24T19:46:50.578Z,12.73
2023-05-24T19:49:17.179Z,12.73
2023-05-24T19:51:43.746Z,12.72
2023-05-24T19:54:11.140Z,12.67
2023-05-24T19:56:37.792Z,12.64
2023-05-24T19:59:04.412Z,12.67
2023-05-24T20:01:31.031Z,12.64
2023-05-24T20:03:57.725Z,12.65
2023-05-24T20:06:24.358Z,12.64
2023-05-24T20:08:51.117Z,12.61
2023-05-24T20:11:17.697Z,12.56
2023-05-24T20:13:44.354Z,12.53
2023-05-24T20:16:11.034Z,12.47
2023-05-24T20:18:37.741Z,12.44
2023-05-24T20:21:04.278Z,12.46
2023-05-24T20:23:31.477Z,12.49
2023-05-24T20:25:58.082Z,12.52
2023-05-24T20:28:30.774Z,12.47
2023-05-24T20:30:58.782Z,12.47
2023-05-24T20:33:25.505Z,12.45
2023-05-24T20:35:53.968Z,12.40
2023-05-24T20:38:20.683Z,12.36
2023-05-24T20:40:47.199Z,12.34
2023-05-24T20:43:13.919Z,12.34
2023-05-24T20:45:40.577Z,12.30
2023-05-24T20:48:07.344Z,12.28
2023-05-24T20:50:33.967Z,12.29
2023-05-24T20:53:00.520Z,12.29
2023-05-24T20:55:27.252Z,12.27
2023-05-24T20:57:54.296Z,12.27
2023-05-24T21:00:21.150Z,12.29
2023-05-24T21:02:47.825Z,12.31
2023-05-24T21:05:14.643Z,12.30
2023-05-24T21:07:41.167Z,12.32
2023-05-24T21:10:08.555Z,12.35
2023-05-24T21:12:35.297Z,12.32
2023-05-24T21:15:01.826Z,12.32
2023-05-24T21:17:28.436Z,12.31
2023-05-24T21:19:55.074Z,12.32
2023-05-24T21:22:21.612Z,12.35
2023-05-24T21:24:48.219Z,12.37
2023-05-24T21:27:14.845Z,12.39
2023-05-24T21:29:41.919Z,12.37
2023-05-24T21:32:08.525Z,12.38
2023-05-24T21:34:36.470Z,12.38
2023-05-24T21:37:05.010Z,12.40
2023-05-24T21:39:32.652Z,12.38
2023-05-24T21:41:59.227Z,12.37
2023-05-24T21:44:25.784Z,12.41
2023-05-24T21:46:52.399Z,12.40
2023-05-24T21:49:20.021Z,12.38
2023-05-24T21:51:46.825Z,12.41
2023-05-24T21:54:13.392Z,12.39
2023-05-24T21:56:39.912Z,12.40
2023-05-24T21:59:06.435Z,12.43
2023-05-24T22:01:33.017Z,12.45
2023-05-24T22:03:59.668Z,12.42
2023-05-24T22:06:26.284Z,12.39
2023-05-24T22:08:52.880Z,12.40
2023-05-24T22:11:19.560Z,12.38
2023-05-24T22:13:46.407Z,12.37
2023-05-24T22:16:13.038Z,12.35
2023-05-24T22:18:39.920Z,12.35
2023-05-24T22:21:06.538Z,12.29
2023-05-24T22:23:33.376Z,12.29
2023-05-24T22:26:00.015Z,12.28
2023-05-24T22:28:26.585Z,12.23
2023-05-24T22:30:53.121Z,12.24
2023-05-24T22:33:20.092Z,12.29
2023-05-24T22:35:46.696Z,12.32
2023-05-24T22:38:13.234Z,12.31
2023-05-24T22:40:42.214Z,12.33
2023-05-24T22:43:08.925Z,12.31
2023-05-24T22:45:35.503Z,12.32
2023-05-24T22:48:03.202Z,12.31
2023-05-24T22:50:30.092Z,12.29
2023-05-24T22:52:56.829Z,12.26
2023-05-24T22:55:23.975Z,12.26
2023-05-24T22:57:50.782Z,12.29
2023-05-24T23:00:17.725Z,12.29
2023-05-24T23:02:44.399Z,12.28
2023-05-24T23:05:11.545Z,12.30
2023-05-24T23:07:39.814Z,12.31
2023-05-24T23:10:09.302Z,12.34
2023-05-24T23:12:35.958Z,12.32
2023-05-24T23:15:02.917Z,12.30
2023-05-24T23:17:29.510Z,12.28
2023-05-24T23:19:56.287Z,12.26
2023-05-24T23:22:23.799Z,12.29
2023-05-24T23:24:50.861Z,12.30
2023-05-24T23:27:18.123Z,12.29
2023-05-24T23:29:44.690Z,12.32
2023-05-24T23:32:12.341Z,12.36
2023-05-24T23:34:38.905Z,12.35
2023-05-24T23:37:05.970Z,12.38
2023-05-24T23:39:32.544Z,12.41
2023-05-24T23:41:59.113Z,12.45
2023-05-24T23:44:25.892Z,12.47
2023-05-24T23:46:53.363Z,12.44
2023-05-24T23:49:20.521Z,12.45
2023-05-24T23:51:47.127Z,12.45
2023-05-24T23:54:14.754Z,12.44
2023-05-24T23:56:42.807Z,12.43
2023-05-24T23:59:09.421Z,12.43
